Weather at Juan Lacaze Airport

Public forecast

Using degrees Celsius for public forecast. Weather courtesy of forecast.io.

Closest aviation weather report (METAR) to Juan Lacaze Airport

Closest report is Colonia Laguna de Los Patos International Airport, 15.4 nm (28.5 km) W.

2024/07/20 22:00 (retrieved 1 hour ago)

SUCA 202200Z 12010KT 5000 BR FEW010 OVC070 10/10 Q1020

Closest aviation forecast (TAF) to Juan Lacaze Airport

Closest forecast is Colonia Laguna de Los Patos International Airport, 15.4 nm (28.5 km) W.

2024/07/20 18:31 (retrieved 5 hours ago)

TAF SUCA 201730Z 2018/2118 11013KT 9999 SCT012 BKN070 TX16/2118Z TN11/2111Z TEMPO 2018/2102 5000 RA BKN010 BKN060 TEMPO 2100/2112 3000 DZ BR BKN008 TEMPO 2104/2112 0800 FG OVC006